Time;durP1;ratioP1;P1;durP2;ratioP2;P2;SDS_P1;SDS_P2;PMS_P1;PMS_P2;Temp;Humidity;BMP_temperature;BMP_pressure;BME280_temperature;BME280_humidity;BME280_pressure;Samples;Min_cycle;Max_cycle;Signal;HPM_P1;HPM_P2
2022/04/15 00:00:08;;;;;;;20.02;9.10;;;7.40;99.90;;;;;;4995099;28;20049;-72
2022/04/15 00:02:34;;;;;;;14.23;8.18;;;7.50;99.90;;;;;;4995081;28;20049;-73
2022/04/15 00:04:59;;;;;;;11.95;8.15;;;7.50;99.90;;;;;;4994400;28;20046;-75
2022/04/15 00:07:25;;;;;;;15.18;8.18;;;7.60;99.90;;;;;;4995205;28;20074;-73
2022/04/15 00:09:50;;;;;;;14.32;8.40;;;7.60;99.90;;;;;;4978512;28;20050;-72
2022/04/15 00:12:27;;;;;;;15.45;7.75;;;7.60;99.90;;;;;;4995271;28;20414;-72
2022/04/15 00:14:54;;;;;;;13.63;7.72;;;7.70;99.90;;;;;;4994819;28;20374;-74
2022/04/15 00:17:20;;;;;;;13.18;8.18;;;7.70;99.90;;;;;;4962095;28;20050;-72
2022/04/15 00:19:47;;;;;;;15.68;8.32;;;7.70;99.90;;;;;;4978052;28;20336;-73
2022/04/15 00:22:13;;;;;;;13.27;7.80;;;7.70;99.90;;;;;;4995280;28;20046;-70
2022/04/15 00:24:38;;;;;;;14.95;7.75;;;7.80;99.90;;;;;;4995723;28;20065;-73
2022/04/15 00:27:04;;;;;;;13.10;7.47;;;7.80;99.90;;;;;;4977812;28;20042;-73
2022/04/15 00:29:29;;;;;;;14.52;7.95;;;7.80;99.90;;;;;;4998299;28;20378;-72
2022/04/15 00:31:55;;;;;;;10.35;7.40;;;7.90;99.90;;;;;;4981682;28;20061;-73
2022/04/15 00:34:21;;;;;;;10.95;7.47;;;7.90;99.90;;;;;;4997225;28;20053;-73
2022/04/15 00:36:47;;;;;;;16.80;7.63;;;7.90;99.90;;;;;;4998308;28;20371;-72
2022/04/15 00:39:12;;;;;;;16.80;8.20;;;7.90;99.90;;;;;;4980352;28;20046;-72
2022/04/15 00:41:42;;;;;;;11.93;7.70;;;8.00;99.90;;;;;;4998354;28;20046;-71
2022/04/15 00:44:07;;;;;;;18.50;8.30;;;8.00;99.90;;;;;;4998275;28;20078;-72
2022/04/15 00:46:33;;;;;;;14.80;7.40;;;8.00;99.90;;;;;;4998369;28;20470;-74
2022/04/15 00:48:58;;;;;;;14.95;7.78;;;8.00;99.90;;;;;;4998472;28;20442;-73
2022/04/15 00:51:24;;;;;;;10.85;7.35;;;8.10;99.90;;;;;;4981364;28;20054;-72
2022/04/15 00:53:50;;;;;;;18.15;7.47;;;8.10;99.90;;;;;;4964590;28;20377;-73
2022/04/15 00:56:16;;;;;;;16.38;8.07;;;8.10;99.90;;;;;;4998162;28;20042;-72
2022/04/15 00:58:43;;;;;;;12.13;6.53;;;8.10;99.90;;;;;;4998264;28;20051;-72
2022/04/15 01:01:10;;;;;;;11.73;7.50;;;8.10;99.90;;;;;;4997959;28;20348;-73
2022/04/15 01:03:36;;;;;;;12.82;7.40;;;8.10;99.90;;;;;;4997603;28;20107;-72
2022/04/15 01:06:06;;;;;;;15.60;7.43;;;8.10;99.90;;;;;;4998146;28;20468;-72
2022/04/15 01:08:33;;;;;;;17.05;7.28;;;8.10;99.90;;;;;;4980681;28;20050;-73
2022/04/15 01:11:02;;;;;;;17.60;7.35;;;8.10;99.90;;;;;;4980490;28;20092;-73
2022/04/15 01:13:34;;;;;;;15.85;7.43;;;8.10;99.90;;;;;;4998171;28;20093;-72
2022/04/15 01:16:00;;;;;;;15.65;7.88;;;8.20;99.90;;;;;;4998000;28;20100;-72
2022/04/15 01:18:25;;;;;;;13.23;7.78;;;8.10;99.90;;;;;;4997665;28;20058;-73
2022/04/15 01:20:52;;;;;;;12.60;7.57;;;8.20;99.90;;;;;;4980567;28;20046;-72
2022/04/15 01:23:18;;;;;;;12.90;7.75;;;8.20;99.90;;;;;;4980475;28;20053;-73
2022/04/15 01:25:44;;;;;;;15.50;7.28;;;8.20;99.90;;;;;;4997015;28;20051;-74
2022/04/15 01:28:10;;;;;;;10.70;6.90;;;8.20;99.90;;;;;;4980482;28;20117;-71
2022/04/15 01:30:35;;;;;;;13.15;7.05;;;8.20;99.90;;;;;;4997189;28;20363;-73
2022/04/15 01:33:03;;;;;;;15.00;7.18;;;8.30;99.90;;;;;;4997461;28;20117;-73
2022/04/15 01:35:28;;;;;;;11.13;6.57;;;8.30;99.90;;;;;;4997414;28;20061;-72
2022/04/15 01:37:57;;;;;;;11.50;6.45;;;8.30;99.90;;;;;;4997260;28;20062;-72
2022/04/15 01:40:22;;;;;;;11.60;7.00;;;8.30;99.90;;;;;;4997073;28;20369;-72
2022/04/15 01:42:48;;;;;;;13.65;6.40;;;8.40;99.90;;;;;;4997323;28;20058;-72
2022/04/15 01:45:15;;;;;;;12.48;6.57;;;8.40;99.90;;;;;;4997201;28;20042;-71
2022/04/15 01:47:40;;;;;;;11.02;6.65;;;8.40;99.90;;;;;;4997178;28;20045;-72
2022/04/15 01:50:07;;;;;;;15.40;6.30;;;8.40;99.90;;;;;;4997131;28;20133;-73
2022/04/15 01:52:33;;;;;;;16.02;7.15;;;8.40;99.90;;;;;;4980217;28;20054;-72
2022/04/15 01:55:00;;;;;;;12.10;6.97;;;8.40;99.90;;;;;;4979566;28;20477;-72
2022/04/15 01:57:26;;;;;;;12.80;6.88;;;8.40;99.90;;;;;;4996962;28;20146;-72
2022/04/15 01:59:51;;;;;;;15.15;6.20;;;8.50;99.90;;;;;;4996683;28;20078;-73
2022/04/15 02:02:17;;;;;;;12.73;6.53;;;8.30;99.90;;;;;;4996620;28;20046;-71
2022/04/15 02:04:43;;;;;;;15.27;6.13;;;8.50;99.90;;;;;;4996798;28;20367;-73
2022/04/15 02:07:08;;;;;;;12.50;5.38;;;8.50;99.90;;;;;;4996638;28;20054;-72
2022/04/15 02:09:34;;;;;;;10.02;5.43;;;8.50;99.90;;;;;;4979797;28;20481;-74
2022/04/15 02:12:00;;;;;;;10.73;5.32;;;8.50;99.90;;;;;;4996693;28;20068;-73
2022/04/15 02:14:25;;;;;;;7.47;4.38;;;8.50;99.90;;;;;;4979376;28;20061;-73
2022/04/15 02:16:53;;;;;;;8.05;4.60;;;8.50;99.90;;;;;;4996991;28;20483;-73
2022/04/15 02:19:20;;;;;;;11.77;4.90;;;8.50;99.90;;;;;;4979129;28;20131;-72
2022/04/15 02:21:45;;;;;;;10.13;4.38;;;8.60;99.90;;;;;;4996558;28;20050;-72
2022/04/15 02:24:11;;;;;;;9.98;4.32;;;8.60;99.90;;;;;;4996074;28;20459;-72
2022/04/15 02:26:37;;;;;;;6.78;4.03;;;8.60;99.90;;;;;;4996117;28;20418;-72
2022/04/15 02:29:02;;;;;;;10.95;4.28;;;8.60;99.90;;;;;;4996458;28;20069;-72
2022/04/15 02:31:28;;;;;;;9.35;4.82;;;8.60;99.90;;;;;;4996567;28;20141;-74
2022/04/15 02:33:53;;;;;;;8.25;4.15;;;8.60;99.90;;;;;;4996625;28;20046;-71
2022/04/15 02:36:19;;;;;;;9.30;4.78;;;8.70;99.90;;;;;;4996228;28;20049;-71
2022/04/15 02:38:45;;;;;;;9.02;4.47;;;8.70;99.90;;;;;;4996000;28;20046;-73
2022/04/15 02:41:11;;;;;;;10.55;3.80;;;8.70;99.90;;;;;;4962932;28;20057;-72
2022/04/15 02:43:38;;;;;;;9.52;4.90;;;8.70;99.90;;;;;;4996144;28;20057;-72
2022/04/15 02:46:07;;;;;;;7.78;4.05;;;8.70;99.90;;;;;;4996296;28;20047;-73
2022/04/15 02:48:33;;;;;;;8.27;4.18;;;9.10;99.90;;;;;;4978899;28;20510;-74
2022/04/15 02:51:00;;;;;;;9.15;4.22;;;8.70;99.90;;;;;;4995648;28;20097;-72
2022/04/15 02:53:26;;;;;;;8.63;4.50;;;8.70;99.90;;;;;;4995335;28;20451;-73
2022/04/15 02:55:52;;;;;;;10.23;3.78;;;8.70;99.90;;;;;;4995366;28;20054;-71
2022/04/15 02:58:18;;;;;;;11.10;4.57;;;8.70;99.90;;;;;;4979101;28;20229;-72
2022/04/15 03:00:45;;;;;;;8.38;4.22;;;8.70;99.90;;;;;;4995953;28;20047;-72
2022/04/15 03:03:11;;;;;;;12.63;4.28;;;8.70;99.90;;;;;;4995736;28;20074;-73
2022/04/15 03:05:38;;;;;;;10.73;4.25;;;8.70;99.90;;;;;;4995631;28;20042;-74
2022/04/15 03:08:04;;;;;;;13.75;4.35;;;8.70;99.90;;;;;;4978893;28;20049;-72
2022/04/15 03:10:29;;;;;;;10.05;4.00;;;8.70;99.90;;;;;;4995618;28;20076;-73
2022/04/15 03:12:55;;;;;;;8.00;4.80;;;8.70;99.90;;;;;;4995639;28;20051;-73
2022/04/15 03:15:20;;;;;;;15.70;6.93;;;8.70;99.90;;;;;;4995622;28;20053;-73
2022/04/15 03:17:46;;;;;;;17.38;8.90;;;8.70;99.90;;;;;;4978547;28;20473;-74
2022/04/15 03:20:13;;;;;;;18.25;9.52;;;8.70;99.90;;;;;;4995244;28;20049;-73
2022/04/15 03:22:41;;;;;;;20.58;11.77;;;8.70;99.90;;;;;;4995640;28;20050;-72
2022/04/15 03:25:09;;;;;;;19.73;12.15;;;8.60;99.90;;;;;;4994796;28;20463;-72
2022/04/15 03:27:34;;;;;;;19.33;12.68;;;8.60;99.90;;;;;;4995330;28;20054;-72
2022/04/15 03:30:00;;;;;;;19.50;12.18;;;8.50;99.90;;;;;;4978788;28;20051;-73
2022/04/15 03:32:26;;;;;;;18.38;11.65;;;8.50;99.90;;;;;;4978398;28;20050;-71
2022/04/15 03:34:53;;;;;;;16.00;12.10;;;8.50;99.90;;;;;;4995000;28;20054;-72
2022/04/15 03:37:18;;;;;;;14.25;10.60;;;8.40;99.90;;;;;;4995104;28;20451;-71
2022/04/15 03:39:44;;;;;;;15.85;10.70;;;8.40;99.90;;;;;;4995173;28;20141;-72
2022/04/15 03:42:09;;;;;;;14.02;10.38;;;8.30;99.90;;;;;;4995254;28;20125;-72
2022/04/15 03:44:36;;;;;;;13.05;9.25;;;8.30;99.90;;;;;;4995540;28;20042;-73
2022/04/15 03:47:03;;;;;;;12.20;8.48;;;8.30;99.90;;;;;;4995292;28;20129;-73
2022/04/15 03:49:29;;;;;;;11.10;8.27;;;8.30;99.90;;;;;;4995189;28;20138;-73
2022/04/15 03:51:54;;;;;;;12.73;8.23;;;8.30;99.90;;;;;;4995325;28;20437;-74
2022/04/15 03:54:20;;;;;;;11.07;8.15;;;8.20;99.90;;;;;;4994375;28;20050;-72
2022/04/15 03:56:46;;;;;;;9.25;6.22;;;8.20;99.90;;;;;;4978103;28;20046;-72
2022/04/15 03:59:12;;;;;;;8.45;6.35;;;8.10;99.90;;;;;;4995302;28;20070;-73
2022/04/15 04:01:38;;;;;;;8.50;6.47;;;8.00;99.90;;;;;;4995171;28;20113;-73
2022/04/15 04:04:04;;;;;;;12.27;6.70;;;8.00;99.90;;;;;;4964861;28;20050;-73
2022/04/15 04:06:29;;;;;;;8.45;6.97;;;8.00;99.90;;;;;;4998837;28;20053;-71
2022/04/15 04:08:55;;;;;;;8.95;7.20;;;7.90;99.90;;;;;;4998937;28;20073;-72
2022/04/15 04:11:21;;;;;;;9.38;6.70;;;7.90;99.90;;;;;;4999357;28;20046;-73
2022/04/15 04:13:47;;;;;;;9.55;6.55;;;7.90;99.90;;;;;;4998956;28;20359;-72
2022/04/15 04:16:13;;;;;;;8.57;6.78;;;7.80;99.90;;;;;;4998913;28;20137;-75
2022/04/15 04:18:40;;;;;;;11.40;6.57;;;7.80;99.90;;;;;;4998643;28;20578;-73
2022/04/15 04:21:06;;;;;;;9.18;7.05;;;7.80;99.90;;;;;;4997700;28;20046;-72
2022/04/15 04:23:32;;;;;;;9.23;6.72;;;7.80;99.90;;;;;;4997822;28;20054;-73
2022/04/15 04:25:58;;;;;;;10.05;6.72;;;7.80;99.90;;;;;;4998254;28;20055;-72
2022/04/15 04:28:23;;;;;;;11.95;7.03;;;7.80;99.90;;;;;;4998635;28;20155;-74
2022/04/15 04:30:49;;;;;;;10.23;6.65;;;7.70;99.90;;;;;;4998839;28;20082;-76
2022/04/15 04:33:14;;;;;;;10.80;6.55;;;7.70;99.90;;;;;;4998547;28;20062;-72
2022/04/15 04:35:40;;;;;;;10.27;7.00;;;7.70;99.90;;;;;;4998689;28;20062;-73
2022/04/15 04:38:06;;;;;;;11.32;7.00;;;7.70;99.90;;;;;;4998795;28;20130;-73
2022/04/15 04:40:36;;;;;;;10.82;7.25;;;7.70;99.90;;;;;;4998156;28;20458;-72
2022/04/15 04:43:04;;;;;;;9.45;6.93;;;7.70;99.90;;;;;;4998283;28;20419;-72
2022/04/15 04:45:30;;;;;;;9.27;6.25;;;7.70;99.90;;;;;;4998071;28;20058;-72
2022/04/15 04:47:56;;;;;;;7.43;5.80;;;7.70;99.90;;;;;;4998605;28;20082;-72
2022/04/15 04:50:22;;;;;;;8.75;6.43;;;7.70;99.90;;;;;;4998018;28;20046;-74
2022/04/15 04:52:48;;;;;;;12.30;6.15;;;7.80;99.90;;;;;;4998134;28;20422;-72
2022/04/15 04:55:15;;;;;;;7.55;5.90;;;7.80;99.90;;;;;;4997599;28;20116;-73
2022/04/15 04:57:42;;;;;;;7.20;5.60;;;7.80;99.90;;;;;;4997892;28;20049;-71
2022/04/15 05:00:10;;;;;;;7.60;6.00;;;7.80;99.90;;;;;;4998544;28;20053;-71
2022/04/15 05:02:36;;;;;;;9.15;5.80;;;7.90;99.90;;;;;;4997851;28;20058;-71
2022/04/15 05:05:03;;;;;;;9.73;5.63;;;7.90;99.90;;;;;;4980784;28;20121;-71
2022/04/15 05:07:28;;;;;;;7.00;4.43;;;7.80;99.90;;;;;;4980668;28;20140;-74
2022/04/15 05:09:54;;;;;;;7.47;4.40;;;7.80;99.90;;;;;;4998070;28;20085;-72
2022/04/15 05:12:20;;;;;;;9.35;4.93;;;7.80;99.90;;;;;;4998019;28;20045;-72
2022/04/15 05:14:45;;;;;;;9.18;5.07;;;7.80;99.90;;;;;;4996096;28;20043;-73
2022/04/15 05:17:11;;;;;;;8.80;4.82;;;7.80;99.90;;;;;;4997599;28;20056;-72
2022/04/15 05:19:36;;;;;;;7.50;5.75;;;7.80;99.90;;;;;;4997304;28;20421;-72
2022/04/15 05:22:02;;;;;;;6.75;4.82;;;7.70;99.90;;;;;;4997590;28;20412;-73
2022/04/15 05:24:28;;;;;;;7.20;4.45;;;7.80;99.90;;;;;;4997269;28;20079;-71
2022/04/15 05:26:54;;;;;;;5.50;4.05;;;7.80;99.90;;;;;;4997552;28;20363;-73
2022/04/15 05:29:19;;;;;;;5.82;4.63;;;7.70;99.90;;;;;;4997480;28;20098;-73
2022/04/15 05:31:46;;;;;;;10.55;5.60;;;7.80;99.90;;;;;;4997374;28;20046;-73
2022/04/15 05:34:12;;;;;;;8.82;6.38;;;7.70;99.90;;;;;;4997402;28;20121;-72
2022/04/15 05:36:37;;;;;;;8.25;6.18;;;7.80;99.90;;;;;;4997482;28;20134;-73
2022/04/15 05:39:03;;;;;;;7.78;5.60;;;7.80;99.90;;;;;;4996217;28;20061;-73
2022/04/15 05:41:28;;;;;;;10.40;5.90;;;7.70;99.90;;;;;;4997287;28;20144;-73
2022/04/15 05:43:55;;;;;;;8.85;6.82;;;7.70;99.90;;;;;;4963933;28;20042;-73
2022/04/15 05:46:21;;;;;;;8.65;6.05;;;7.70;99.90;;;;;;4991683;28;20085;-72
2022/04/15 05:48:46;;;;;;;12.38;6.65;;;7.70;99.90;;;;;;4960744;28;20038;-73
2022/04/15 05:51:12;;;;;;;10.68;6.97;;;7.70;99.90;;;;;;4977879;28;20058;-73
2022/04/15 05:53:37;;;;;;;10.20;7.10;;;7.70;99.90;;;;;;4961229;28;20097;-74
2022/04/15 05:56:04;;;;;;;10.45;6.60;;;7.70;99.90;;;;;;4960532;28;20046;-73
2022/04/15 05:58:29;;;;;;;10.25;6.95;;;7.70;99.90;;;;;;4977347;28;20042;-74
2022/04/15 06:00:56;;;;;;;9.35;7.38;;;7.70;99.90;;;;;;4983384;28;20370;-72
2022/04/15 06:03:22;;;;;;;9.98;6.95;;;7.60;99.90;;;;;;4996916;28;20042;-72
2022/04/15 06:05:49;;;;;;;11.68;7.32;;;7.70;99.90;;;;;;4996884;28;20058;-71
2022/04/15 06:08:15;;;;;;;12.40;7.45;;;7.70;99.90;;;;;;4997147;28;20077;-73
2022/04/15 06:10:41;;;;;;;12.40;8.05;;;7.60;99.90;;;;;;4997105;28;20054;-72
2022/04/15 06:13:13;;;;;;;12.65;8.60;;;7.70;99.90;;;;;;4996525;28;20050;-73
2022/04/15 06:15:51;;;;;;;10.57;7.90;;;7.70;99.90;;;;;;4997528;28;20058;-73
2022/04/15 06:18:17;;;;;;;12.75;7.20;;;7.70;99.90;;;;;;4982565;28;20047;-72
2022/04/15 06:20:43;;;;;;;12.98;8.30;;;7.80;99.90;;;;;;4960515;28;20053;-73
2022/04/15 06:23:08;;;;;;;11.75;8.35;;;7.80;99.90;;;;;;4977156;28;20347;-72
2022/04/15 06:25:34;;;;;;;17.70;8.90;;;7.90;99.90;;;;;;4976902;28;20055;-73
2022/04/15 06:28:00;;;;;;;11.35;7.78;;;8.00;99.90;;;;;;4959391;28;20086;-71
2022/04/15 06:30:27;;;;;;;12.52;8.68;;;8.00;99.90;;;;;;4960183;28;20047;-72
2022/04/15 06:32:53;;;;;;;12.80;8.02;;;8.10;99.90;;;;;;4959693;28;20463;-73
2022/04/15 06:35:18;;;;;;;15.98;9.13;;;8.10;99.90;;;;;;4976971;28;20133;-71
2022/04/15 06:37:44;;;;;;;16.05;9.25;;;8.10;99.90;;;;;;4959958;28;20129;-73
2022/04/15 06:40:11;;;;;;;17.02;8.80;;;8.10;99.90;;;;;;4976389;28;20456;-73
2022/04/15 06:42:37;;;;;;;13.43;9.45;;;8.10;99.90;;;;;;4976527;28;20141;-72
2022/04/15 06:45:04;;;;;;;18.42;9.82;;;8.20;99.90;;;;;;4959888;28;20085;-73
2022/04/15 06:47:29;;;;;;;16.05;10.10;;;8.10;99.90;;;;;;4979241;28;20519;-70
2022/04/15 06:49:55;;;;;;;16.00;11.10;;;8.10;99.90;;;;;;4988463;28;20125;-69
2022/04/15 06:52:21;;;;;;;16.30;10.70;;;8.10;99.90;;;;;;4996023;28;20125;-74
2022/04/15 06:54:47;;;;;;;17.85;10.95;;;8.20;99.90;;;;;;4995887;28;20118;-72
2022/04/15 06:57:12;;;;;;;14.60;10.55;;;8.30;99.90;;;;;;4996048;28;20046;-71
2022/04/15 06:59:38;;;;;;;17.25;11.57;;;8.30;99.90;;;;;;4995776;28;20050;-72
2022/04/15 07:02:05;;;;;;;16.52;12.38;;;8.30;99.90;;;;;;4979336;28;20111;-71
2022/04/15 07:04:32;;;;;;;16.30;11.02;;;8.40;99.90;;;;;;4978933;28;20054;-72
2022/04/15 07:06:57;;;;;;;20.25;11.30;;;8.40;99.90;;;;;;4995751;28;20050;-75
2022/04/15 07:09:23;;;;;;;20.15;11.52;;;8.50;99.90;;;;;;4995547;28;20411;-72
2022/04/15 07:11:49;;;;;;;17.63;11.88;;;8.50;99.90;;;;;;4995409;28;20414;-72
2022/04/15 07:14:14;;;;;;;20.40;11.98;;;8.60;99.90;;;;;;4995807;28;20042;-72
2022/04/15 07:16:40;;;;;;;21.60;11.98;;;8.60;99.90;;;;;;4995275;28;20053;-73
2022/04/15 07:19:07;;;;;;;24.15;12.68;;;8.60;99.90;;;;;;4995514;28;20053;-71
2022/04/15 07:21:36;;;;;;;27.05;13.23;;;8.60;99.90;;;;;;4995723;28;20053;-73
2022/04/15 07:24:03;;;;;;;23.15;13.00;;;8.60;99.90;;;;;;4995205;28;20038;-71
2022/04/15 07:26:29;;;;;;;24.80;13.27;;;8.60;99.90;;;;;;4995221;28;20060;-71
2022/04/15 07:28:54;;;;;;;22.92;12.75;;;8.60;99.90;;;;;;4995268;28;20042;-74
2022/04/15 07:31:20;;;;;;;22.90;12.25;;;8.70;99.90;;;;;;4995430;28;20442;-73
2022/04/15 07:33:46;;;;;;;21.73;13.25;;;8.70;99.90;;;;;;4995501;28;20053;-69
2022/04/15 07:38:56;;;;;;;22.15;11.95;;;8.90;99.90;;;;;;4997511;28;20050;-73
2022/04/15 07:41:22;;;;;;;21.77;12.23;;;9.00;99.90;;;;;;4999763;28;20050;-75
2022/04/15 07:43:48;;;;;;;22.33;11.52;;;9.10;99.90;;;;;;4999342;28;20073;-73
2022/04/15 07:46:14;;;;;;;19.88;11.60;;;9.10;99.90;;;;;;4999097;28;20039;-72
2022/04/15 07:48:40;;;;;;;20.58;11.18;;;9.20;99.90;;;;;;4999349;28;20108;-73
2022/04/15 07:51:06;;;;;;;18.58;11.27;;;9.20;99.90;;;;;;4998863;28;20046;-73
2022/04/15 07:53:31;;;;;;;19.20;11.35;;;9.20;99.90;;;;;;4999490;28;20362;-73
2022/04/15 07:55:57;;;;;;;19.17;11.25;;;9.20;99.90;;;;;;4982203;28;20046;-72
2022/04/15 07:58:22;;;;;;;21.98;11.27;;;9.20;99.90;;;;;;4999194;28;20042;-72
2022/04/15 08:00:49;;;;;;;17.83;11.13;;;9.10;99.90;;;;;;4981734;28;20078;-72
2022/04/15 08:03:17;;;;;;;20.42;10.60;;;9.20;99.90;;;;;;4999026;28;20057;-74
2022/04/15 08:05:43;;;;;;;21.60;10.70;;;9.20;99.90;;;;;;4999139;28;20042;-73
2022/04/15 08:08:09;;;;;;;15.43;9.30;;;9.20;99.90;;;;;;4966107;28;20042;-73
2022/04/15 08:10:34;;;;;;;16.90;9.35;;;9.30;99.90;;;;;;4998880;28;20050;-74
2022/04/15 08:13:02;;;;;;;13.18;8.45;;;9.40;99.90;;;;;;4998824;28;20111;-72
2022/04/15 08:15:27;;;;;;;12.15;8.38;;;9.40;99.90;;;;;;4965416;28;20452;-73
2022/04/15 08:17:53;;;;;;;16.23;8.27;;;9.50;99.90;;;;;;4998468;28;20052;-72
2022/04/15 08:20:19;;;;;;;10.13;6.65;;;9.80;99.90;;;;;;4981345;28;20355;-74
2022/04/15 08:22:44;;;;;;;12.20;6.10;;;10.10;99.90;;;;;;4998734;28;20120;-74
2022/04/15 08:25:10;;;;;;;10.80;5.68;;;10.30;99.90;;;;;;4998629;28;20070;-72
2022/04/15 08:27:35;;;;;;;10.07;6.00;;;10.50;99.90;;;;;;4981903;28;20061;-73
2022/04/15 08:30:01;;;;;;;9.80;5.45;;;10.50;99.90;;;;;;4998567;28;20035;-73
2022/04/15 08:32:32;;;;;;;11.88;6.38;;;10.60;99.90;;;;;;4998904;28;20108;-73
2022/04/15 08:35:00;;;;;;;12.20;6.65;;;10.70;99.90;;;;;;4998652;28;20057;-73
2022/04/15 08:37:25;;;;;;;10.10;6.75;;;10.70;99.90;;;;;;4998247;28;20053;-73
2022/04/15 08:39:51;;;;;;;10.20;5.80;;;11.00;99.90;;;;;;4998304;28;20042;-73
2022/04/15 08:42:20;;;;;;;10.18;7.18;;;11.50;99.90;;;;;;4998382;28;20048;-74
2022/04/15 08:44:49;;;;;;;12.52;7.25;;;11.70;99.90;;;;;;4998285;28;20050;-73
2022/04/15 08:47:15;;;;;;;22.50;8.20;;;11.70;99.90;;;;;;4979364;28;20046;-73
2022/04/15 08:49:40;;;;;;;10.45;7.70;;;11.60;99.90;;;;;;4998120;28;20443;-73
2022/04/15 08:52:09;;;;;;;10.52;8.10;;;11.60;99.90;;;;;;4998247;28;20035;-73
2022/04/15 08:54:35;;;;;;;13.60;8.40;;;11.60;99.90;;;;;;4998034;28;20069;-72
2022/04/15 08:57:01;;;;;;;16.17;8.20;;;11.60;99.90;;;;;;4998302;28;20074;-73
2022/04/15 08:59:26;;;;;;;14.57;8.50;;;11.40;99.90;;;;;;4998109;28;20047;-71
2022/04/15 09:01:52;;;;;;;12.95;7.38;;;11.40;99.90;;;;;;4998085;28;20046;-73
2022/04/15 09:04:18;;;;;;;13.63;6.97;;;11.40;99.90;;;;;;4997906;28;20129;-72
2022/04/15 09:06:44;;;;;;;10.38;6.32;;;11.60;99.90;;;;;;4998147;28;20473;-72
2022/04/15 09:09:14;;;;;;;10.35;6.75;;;11.80;99.90;;;;;;4997444;28;20042;-74
2022/04/15 09:11:42;;;;;;;11.95;6.55;;;12.00;99.90;;;;;;4998010;28;20054;-72
2022/04/15 09:14:12;;;;;;;14.60;6.53;;;12.00;99.90;;;;;;4997703;28;20038;-73
2022/04/15 09:16:43;;;;;;;9.15;6.70;;;12.00;99.90;;;;;;4997244;28;20043;-73
2022/04/15 09:19:10;;;;;;;10.27;6.32;;;11.80;99.90;;;;;;4997187;28;20082;-72
2022/04/15 09:21:36;;;;;;;8.80;6.45;;;11.80;99.90;;;;;;4981067;28;20050;-72
2022/04/15 09:24:03;;;;;;;13.13;6.60;;;11.70;99.90;;;;;;4997771;28;20154;-71
2022/04/15 09:26:28;;;;;;;14.95;7.28;;;11.80;99.90;;;;;;4980201;28;20104;-73
2022/04/15 09:28:55;;;;;;;8.45;5.95;;;11.80;99.90;;;;;;4978947;28;20377;-73
2022/04/15 09:31:23;;;;;;;11.98;6.30;;;11.80;99.90;;;;;;4997316;28;20053;-74
2022/04/15 09:33:58;;;;;;;12.00;5.97;;;11.70;99.90;;;;;;4980981;28;20055;-73
2022/04/15 09:36:24;;;;;;;14.00;6.78;;;11.60;99.90;;;;;;4980006;28;20049;-73
2022/04/15 09:38:55;;;;;;;11.45;5.80;;;11.50;99.90;;;;;;4997247;28;20116;-73
2022/04/15 09:41:23;;;;;;;11.20;6.40;;;11.60;99.90;;;;;;4979885;28;20046;-73
2022/04/15 09:43:56;;;;;;;10.82;6.47;;;11.90;99.90;;;;;;4980014;28;20129;-74
2022/04/15 09:46:22;;;;;;;;;;;12.20;99.90;;;;;;4992183;28;20463;-74
2022/04/15 09:49:20;;;;;;;12.63;6.15;;;12.10;99.90;;;;;;4961071;28;19937;-74
2022/04/15 09:51:51;;;;;;;12.13;6.57;;;12.00;99.90;;;;;;4955245;28;20391;-75
2022/04/15 09:54:27;;;;;;;10.15;6.30;;;12.00;99.90;;;;;;4977537;28;20051;-75
2022/04/15 09:56:58;;;;;;;9.68;5.53;;;11.90;99.90;;;;;;4982328;28;20152;-73
2022/04/15 09:59:25;;;;;;;10.27;6.68;;;12.00;99.90;;;;;;4996237;28;20050;-74
2022/04/15 10:02:04;;;;;;;13.20;6.75;;;12.10;99.90;;;;;;4996453;28;20054;-72
2022/04/15 10:04:31;;;;;;;9.50;5.95;;;12.10;99.90;;;;;;4996808;28;20125;-72
2022/04/15 10:06:59;;;;;;;12.40;6.70;;;12.20;99.90;;;;;;4997375;28;20046;-70
2022/04/15 10:09:26;;;;;;;12.13;6.75;;;12.20;99.90;;;;;;4997020;28;20355;-73
2022/04/15 10:11:52;;;;;;;13.38;7.50;;;12.20;99.90;;;;;;4996868;28;20065;-71
2022/04/15 10:14:19;;;;;;;10.27;6.63;;;12.00;99.90;;;;;;4980059;28;20054;-70
2022/04/15 10:16:45;;;;;;;11.90;6.47;;;11.90;99.90;;;;;;4996153;28;20486;-72
2022/04/15 10:19:11;;;;;;;12.18;6.43;;;11.70;99.90;;;;;;4996661;28;20046;-74
2022/04/15 10:21:43;;;;;;;9.27;6.35;;;11.60;99.90;;;;;;4996674;28;20042;-72
2022/04/15 10:24:09;;;;;;;13.10;6.40;;;11.70;99.90;;;;;;4996036;28;20050;-72
2022/04/15 10:26:46;;;;;;;12.38;6.60;;;11.60;99.90;;;;;;4996499;28;20055;-72
2022/04/15 10:29:12;;;;;;;11.68;7.00;;;11.60;99.90;;;;;;4996397;28;20364;-71
2022/04/15 10:31:54;;;;;;;12.23;7.40;;;11.50;99.90;;;;;;4996650;28;20061;-75
2022/04/15 10:34:21;;;;;;;9.20;6.38;;;11.40;99.90;;;;;;4995879;28;20046;-73
2022/04/15 10:36:51;;;;;;;9.77;6.43;;;11.40;99.90;;;;;;4978814;28;20093;-72
2022/04/15 10:39:19;;;;;;;13.05;6.28;;;11.50;99.90;;;;;;4995789;28;20046;-73
2022/04/15 10:41:45;;;;;;;10.48;6.25;;;11.60;99.90;;;;;;4979333;28;20046;-72
2022/04/15 10:44:23;;;;;;;11.88;6.18;;;11.40;99.90;;;;;;4996232;28;20537;-73
2022/04/15 10:46:49;;;;;;;11.60;6.28;;;11.40;99.90;;;;;;4995384;28;20046;-70
2022/04/15 10:49:23;;;;;;;10.30;6.93;;;11.40;99.90;;;;;;4979121;28;20543;-70
2022/04/15 10:52:16;;;;;;;12.85;7.60;;;11.40;99.90;;;;;;4995719;28;20108;-76
2022/04/15 10:54:45;;;;;;;13.05;7.13;;;11.20;99.90;;;;;;4996072;28;20046;-73
2022/04/15 10:57:17;;;;;;;10.98;6.30;;;11.20;99.90;;;;;;4995572;28;20121;-74
2022/04/15 11:02:40;;;;;;;9.85;6.75;;;11.10;99.90;;;;;;4994903;28;20058;-71
2022/04/15 11:05:11;;;;;;;10.68;6.63;;;11.10;99.90;;;;;;4980849;28;20059;-73
2022/04/15 11:08:05;;;;;;;11.73;6.82;;;11.10;99.90;;;;;;4973122;28;20459;-73
2022/04/15 11:10:42;;;;;;;9.18;6.60;;;11.10;99.90;;;;;;4985930;28;20057;-72
2022/04/15 11:13:32;;;;;;;11.30;7.30;;;11.30;99.90;;;;;;4993929;28;20047;-72
2022/04/15 11:16:04;;;;;;;9.68;6.45;;;11.30;99.90;;;;;;4978149;28;20054;-72
2022/04/15 11:18:53;;;;;;;10.77;6.50;;;11.40;99.90;;;;;;4978009;28;20471;-74
2022/04/15 11:21:37;;;;;;;10.85;6.70;;;11.50;99.90;;;;;;4978425;28;20042;-73
2022/04/15 11:24:08;;;;;;;9.50;6.18;;;11.50;99.90;;;;;;4994868;28;20038;-72
2022/04/15 11:26:36;;;;;;;10.43;6.93;;;11.60;99.90;;;;;;4978822;28;20050;-73
2022/04/15 11:29:05;;;;;;;10.98;6.82;;;11.50;99.90;;;;;;4978165;28;20104;-73
2022/04/15 11:31:37;;;;;;;11.00;7.20;;;11.40;99.90;;;;;;4995781;28;20097;-72
2022/04/15 11:34:07;;;;;;;12.98;6.88;;;11.30;99.90;;;;;;4995503;28;20053;-72
2022/04/15 11:36:44;;;;;;;11.38;6.60;;;11.10;99.90;;;;;;4978265;28;20049;-71
2022/04/15 11:39:12;;;;;;;11.82;7.05;;;11.10;99.90;;;;;;4993393;28;20109;-75
2022/04/15 11:41:53;;;;;;;9.75;6.95;;;11.10;99.90;;;;;;4995052;28;20048;-74
2022/04/15 11:44:20;;;;;;;13.18;7.00;;;11.20;99.90;;;;;;4978207;28;20096;-71
2022/04/15 11:46:51;;;;;;;9.18;6.72;;;11.20;99.90;;;;;;4978396;28;20130;-73
2022/04/15 11:49:23;;;;;;;13.10;7.35;;;11.30;99.90;;;;;;4978258;28;20038;-73
2022/04/15 11:51:57;;;;;;;9.93;6.22;;;11.20;99.90;;;;;;4995252;28;20101;-72
2022/04/15 11:54:24;;;;;;;10.95;7.00;;;11.10;99.90;;;;;;4995413;28;20065;-74
2022/04/15 11:56:57;;;;;;;10.52;6.75;;;11.00;99.90;;;;;;4995392;28;20132;-70
2022/04/15 11:59:24;;;;;;;11.50;6.68;;;11.10;99.90;;;;;;4995126;28;20042;-70
2022/04/15 12:01:52;;;;;;;11.18;7.50;;;11.00;99.90;;;;;;4978367;28;20057;-71
2022/04/15 12:04:18;;;;;;;12.75;7.43;;;11.10;99.90;;;;;;4961830;28;20347;-71
2022/04/15 12:06:43;;;;;;;10.07;6.97;;;11.10;99.90;;;;;;4977862;28;20141;-72
2022/04/15 12:09:11;;;;;;;11.05;6.60;;;11.20;99.90;;;;;;4976402;28;20121;-72
2022/04/15 12:11:38;;;;;;;13.65;7.47;;;11.30;99.90;;;;;;4995226;28;20092;-70
2022/04/15 12:14:05;;;;;;;11.63;6.85;;;11.40;99.90;;;;;;4994935;28;20046;-72
2022/04/15 12:16:33;;;;;;;12.05;7.63;;;11.40;99.90;;;;;;4977526;28;20514;-72
2022/04/15 12:19:00;;;;;;;10.13;6.95;;;11.40;99.90;;;;;;4995262;28;20585;-74
2022/04/15 12:21:29;;;;;;;8.18;6.80;;;11.20;99.90;;;;;;4994969;28;20089;-71
2022/04/15 12:24:05;;;;;;;10.43;6.80;;;11.10;99.90;;;;;;4978800;28;20072;-73
2022/04/15 12:26:42;;;;;;;10.95;6.78;;;11.10;99.90;;;;;;4981464;28;20435;-74
2022/04/15 12:31:51;;;;;;;11.25;6.75;;;11.20;99.90;;;;;;4998143;28;20046;-74
2022/04/15 12:34:33;;;;;;;11.38;7.05;;;11.10;99.90;;;;;;4995506;28;20384;-74
2022/04/15 12:36:59;;;;;;;9.93;6.10;;;11.30;99.90;;;;;;4998335;28;20470;-74
2022/04/15 12:39:25;;;;;;;9.85;6.15;;;11.30;99.90;;;;;;4997571;28;20038;-73
2022/04/15 12:41:53;;;;;;;11.00;6.53;;;11.30;99.90;;;;;;4998119;28;20443;-74
2022/04/15 12:44:27;;;;;;;10.40;6.50;;;11.40;99.90;;;;;;4998555;28;20045;-73
2022/04/15 12:47:02;;;;;;;14.27;6.97;;;11.40;99.90;;;;;;4965169;28;20410;-73
2022/04/15 12:49:36;;;;;;;10.82;7.15;;;11.30;99.90;;;;;;4980706;28;20379;-75
2022/04/15 12:52:18;;;;;;;12.27;6.88;;;11.00;99.90;;;;;;4998448;28;20124;-72
2022/04/15 12:54:56;;;;;;;11.07;7.07;;;10.80;99.90;;;;;;4997980;28;20046;-75